createdAt,value
2023-02-19T00:01:21.766Z,95853.72
2023-02-19T00:03:51.284Z,95854.84
2023-02-19T00:06:19.292Z,95839.91
2023-02-19T00:08:46.275Z,95838.16
2023-02-19T00:11:18.538Z,95833.03
2023-02-19T00:13:47.396Z,95838.47
2023-02-19T00:16:37.246Z,95840.72
2023-02-19T00:19:11.710Z,95831.44
2023-02-19T00:21:38.265Z,95833.03
2023-02-19T00:24:06.846Z,95829.81
2023-02-19T00:26:34.086Z,95830.78
2023-02-19T00:29:01.561Z,95822.94
2023-02-19T00:31:33.005Z,95819.41
2023-02-19T00:34:06.002Z,95825.19
2023-02-19T00:36:34.263Z,95826.81
2023-02-19T00:39:00.980Z,95817.50
2023-02-19T00:41:27.864Z,95827.59
2023-02-19T00:44:13.762Z,95826.63
2023-02-19T00:46:46.504Z,95830.16
2023-02-19T00:49:22.216Z,95826.31
2023-02-19T00:51:51.089Z,95822.78
2023-02-19T00:54:18.094Z,95815.88
2023-02-19T00:56:45.584Z,95813.97
2023-02-19T00:59:12.393Z,95805.00
2023-02-19T01:01:39.076Z,95802.44
2023-02-19T01:04:06.873Z,95798.13
2023-02-19T01:06:33.789Z,95802.13
2023-02-19T01:09:00.262Z,95796.03
2023-02-19T01:11:27.030Z,95790.59
2023-02-19T01:13:57.709Z,95797.28
2023-02-19T01:16:24.534Z,95790.28
2023-02-19T01:18:51.548Z,95787.88
2023-02-19T01:21:21.575Z,95788.34
2023-02-19T01:23:49.320Z,95784.81
2023-02-19T01:26:22.242Z,95788.66
2023-02-19T01:28:49.444Z,95787.03
2023-02-19T01:31:22.633Z,95783.53
2023-02-19T01:33:55.222Z,95769.91
2023-02-19T01:36:22.731Z,95769.91
2023-02-19T01:38:49.469Z,95772.63
2023-02-19T01:41:18.662Z,95772.31
2023-02-19T01:44:02.638Z,95764.31
2023-02-19T01:46:36.918Z,95774.09
2023-02-19T01:49:11.882Z,95768.16
2023-02-19T01:51:44.231Z,95763.66
2023-02-19T01:54:15.916Z,95762.56
2023-02-19T01:56:45.794Z,95754.38
2023-02-19T01:59:13.124Z,95757.44
2023-02-19T02:01:41.114Z,95759.34
2023-02-19T02:04:10.035Z,95746.34
2023-02-19T02:06:44.669Z,95745.84
2023-02-19T02:09:12.048Z,95746.34
2023-02-19T02:11:42.450Z,95735.78
2023-02-19T02:14:08.957Z,95742.03
2023-02-19T02:17:03.734Z,95749.72
2023-02-19T02:20:07.706Z,95741.41
2023-02-19T02:22:54.473Z,95733.56
2023-02-19T02:25:55.493Z,95738.50
2023-02-19T02:29:05.999Z,95736.09
2023-02-19T02:31:39.653Z,95734.00
2023-02-19T02:34:14.749Z,95728.56
2023-02-19T02:36:49.812Z,95720.09
2023-02-19T02:39:20.747Z,95724.56
2023-02-19T02:41:55.077Z,95720.25
2023-02-19T02:44:21.919Z,95715.59
2023-02-19T02:46:48.462Z,95709.84
2023-02-19T02:49:24.042Z,95728.53
2023-02-19T02:51:54.542Z,95729.00
2023-02-19T02:54:31.243Z,95722.63
2023-02-19T02:57:00.307Z,95719.72
2023-02-19T02:59:33.940Z,95716.38
2023-02-19T03:02:31.264Z,95707.53
2023-02-19T03:05:06.425Z,95697.63
2023-02-19T03:07:42.267Z,95692.66
2023-02-19T03:10:13.492Z,95705.41
2023-02-19T03:12:43.556Z,95695.00
2023-02-19T03:15:13.730Z,95686.16
2023-02-19T03:17:47.635Z,95690.28
2023-02-19T03:20:19.889Z,95684.91
2023-02-19T03:22:46.894Z,95689.81
2023-02-19T03:25:21.725Z,95679.25
2023-02-19T03:27:49.726Z,95687.97
2023-02-19T03:30:21.522Z,95694.94
2023-02-19T03:32:51.261Z,95697.91
2023-02-19T03:35:25.617Z,95692.53
2023-02-19T03:38:11.584Z,95703.53
2023-02-19T03:40:54.379Z,95697.44
2023-02-19T03:43:27.503Z,95700.56
2023-02-19T03:45:59.988Z,95701.81
2023-02-19T03:48:33.657Z,95712.97
2023-02-19T03:51:32.289Z,95699.00
2023-02-19T03:54:10.767Z,95711.69
2023-02-19T03:56:46.512Z,95702.66
2023-02-19T03:59:16.820Z,95713.31
2023-02-19T04:01:52.074Z,95695.56
2023-02-19T04:04:27.628Z,95693.88
2023-02-19T04:06:56.433Z,95691.91
2023-02-19T04:09:28.533Z,95697.00
2023-02-19T04:12:02.899Z,95671.72
2023-02-19T04:14:39.999Z,95701.44
2023-02-19T04:17:11.695Z,95699.94
2023-02-19T04:19:42.546Z,95702.66
2023-02-19T04:22:10.353Z,95676.75
2023-02-19T04:24:46.700Z,95695.19
2023-02-19T04:27:13.594Z,95687.81
2023-02-19T04:29:40.528Z,95693.31
2023-02-19T04:32:09.627Z,95679.75
2023-02-19T04:34:36.262Z,95702.03
2023-02-19T04:37:03.102Z,95696.09
2023-02-19T04:39:29.728Z,95689.59
2023-02-19T04:41:56.224Z,95691.81
2023-02-19T04:44:22.934Z,95711.84
2023-02-19T04:46:49.592Z,95709.63
2023-02-19T04:49:16.174Z,95711.06
2023-02-19T04:51:42.855Z,95697.31
2023-02-19T04:54:09.525Z,95702.13
2023-02-19T04:56:36.042Z,95718.19
2023-02-19T04:59:02.682Z,95708.16
2023-02-19T05:01:29.348Z,95708.16
2023-02-19T05:03:56.069Z,95704.44
2023-02-19T05:06:22.688Z,95717.69
2023-02-19T05:08:49.344Z,95713.59
2023-02-19T05:11:15.939Z,95713.88
2023-02-19T05:13:42.647Z,95714.69
2023-02-19T05:16:14.303Z,95719.69
2023-02-19T05:18:41.287Z,95716.19
2023-02-19T05:21:08.515Z,95728.59
2023-02-19T05:23:35.370Z,95728.84
2023-02-19T05:26:12.368Z,95726.72
2023-02-19T05:28:39.116Z,95724.69
2023-02-19T05:31:08.662Z,95727.09
2023-02-19T05:33:35.577Z,95723.31
2023-02-19T05:36:07.150Z,95728.72
2023-02-19T05:38:34.042Z,95738.19
2023-02-19T05:41:12.102Z,95736.28
2023-02-19T05:43:43.458Z,95740.59
2023-02-19T05:46:12.090Z,95741.88
2023-02-19T05:48:39.142Z,95743.41
2023-02-19T05:51:08.670Z,95746.09
2023-02-19T05:53:36.149Z,95752.31
2023-02-19T05:56:03.561Z,95733.16
2023-02-19T05:58:30.374Z,95743.69
2023-02-19T06:00:57.186Z,95754.22
2023-02-19T06:03:23.872Z,95754.44
2023-02-19T06:05:50.561Z,95745.19
2023-02-19T06:08:17.200Z,95751.94
2023-02-19T06:10:44.073Z,95759.75
2023-02-19T06:13:10.748Z,95753.53
2023-02-19T06:15:38.082Z,95760.44
2023-02-19T06:18:04.829Z,95747.97
2023-02-19T06:20:31.531Z,95767.19
2023-02-19T06:22:58.074Z,95759.25
2023-02-19T06:25:24.606Z,95763.03
2023-02-19T06:27:51.117Z,95765.44
2023-02-19T06:30:17.859Z,95768.69
2023-02-19T06:32:44.385Z,95774.09
2023-02-19T06:35:11.129Z,95773.88
2023-02-19T06:37:37.693Z,95785.75
2023-02-19T06:40:04.742Z,95797.38
2023-02-19T06:42:32.457Z,95794.88
2023-02-19T06:44:59.029Z,95795.38
2023-02-19T06:47:25.624Z,95805.63
2023-02-19T06:49:52.110Z,95803.81
2023-02-19T06:52:18.773Z,95797.28
2023-02-19T06:54:45.356Z,95795.56
2023-02-19T06:57:11.833Z,95798.47
2023-02-19T06:59:38.462Z,95808.72
2023-02-19T07:02:05.142Z,95811.72
2023-02-19T07:04:31.809Z,95812.25
2023-02-19T07:06:58.494Z,95815.75
2023-02-19T07:09:25.005Z,95822.16
2023-02-19T07:11:51.737Z,95822.09
2023-02-19T07:14:18.291Z,95840.53
2023-02-19T07:16:45.085Z,95830.22
2023-02-19T07:19:12.121Z,95824.69
2023-02-19T07:21:38.707Z,95836.53
2023-02-19T07:24:05.571Z,95842.16
2023-02-19T07:26:32.436Z,95843.25
2023-02-19T07:28:58.922Z,95839.13
2023-02-19T07:31:25.723Z,95836.59
2023-02-19T07:33:53.144Z,95851.38
2023-02-19T07:36:21.998Z,95841.81
2023-02-19T07:38:53.860Z,95843.91
2023-02-19T07:41:20.418Z,95856.38
2023-02-19T07:43:47.541Z,95860.00
2023-02-19T07:46:14.448Z,95848.41
2023-02-19T07:48:42.813Z,95846.41
2023-02-19T07:51:13.194Z,95851.84
2023-02-19T07:53:39.956Z,95860.16
2023-02-19T07:56:08.013Z,95866.00
2023-02-19T07:58:34.459Z,95867.81
2023-02-19T08:01:14.444Z,95875.22
2023-02-19T08:03:41.671Z,95883.56
2023-02-19T08:06:09.089Z,95892.53
2023-02-19T08:08:35.573Z,95890.78
2023-02-19T08:11:03.730Z,95892.59
2023-02-19T08:13:30.727Z,95908.31
2023-02-19T08:16:16.967Z,95911.72
2023-02-19T08:18:48.359Z,95903.94
2023-02-19T08:21:16.073Z,95909.78
2023-02-19T08:23:42.802Z,95906.56
2023-02-19T08:26:09.321Z,95913.59
2023-02-19T08:28:36.037Z,95913.88
2023-02-19T08:31:05.256Z,95917.13
2023-02-19T08:33:32.115Z,95906.56
2023-02-19T08:36:02.486Z,95910.88
2023-02-19T08:38:29.013Z,95917.44
2023-02-19T08:40:55.884Z,95912.78
2023-02-19T08:43:22.393Z,95927.88
2023-02-19T08:45:48.940Z,95928.66
2023-02-19T08:48:15.492Z,95928.47
2023-02-19T08:50:42.042Z,95929.25
2023-02-19T08:53:08.871Z,95941.13
2023-02-19T08:55:37.681Z,95928.34
2023-02-19T08:58:04.387Z,95936.38
2023-02-19T09:00:31.022Z,95937.50
2023-02-19T09:02:58.370Z,95951.19
2023-02-19T09:05:24.981Z,95956.00
2023-02-19T09:07:51.541Z,95952.31
2023-02-19T09:10:18.230Z,95947.00
2023-02-19T09:12:44.997Z,95956.06
2023-02-19T09:15:11.581Z,95945.28
2023-02-19T09:17:38.066Z,95948.31
2023-02-19T09:20:04.849Z,95945.69
2023-02-19T09:22:31.379Z,95960.41
2023-02-19T09:24:58.000Z,95949.03
2023-02-19T09:27:24.536Z,95944.31
2023-02-19T09:29:51.196Z,95934.88
2023-02-19T09:32:19.205Z,95942.22
2023-02-19T09:34:46.013Z,95943.22
2023-02-19T09:37:12.644Z,95943.22
2023-02-19T09:39:39.110Z,95955.59
2023-02-19T09:42:24.158Z,95943.91
2023-02-19T09:44:54.368Z,95961.31
2023-02-19T09:47:27.608Z,95962.59
2023-02-19T09:49:59.470Z,95955.66
2023-02-19T09:52:32.687Z,95954.38
2023-02-19T09:55:03.322Z,95967.25
2023-02-19T09:57:33.333Z,95969.16
2023-02-19T10:00:09.672Z,95983.41
2023-02-19T10:02:37.377Z,95957.78
2023-02-19T10:05:12.608Z,95985.03
2023-02-19T10:07:43.987Z,95978.50
2023-02-19T10:10:13.457Z,95985.94
2023-02-19T10:12:45.983Z,95983.53
2023-02-19T10:15:37.747Z,96002.94
2023-02-19T10:18:05.313Z,96002.75
2023-02-19T10:20:32.278Z,95986.16
2023-02-19T10:23:07.672Z,95991.00
2023-02-19T10:25:35.254Z,96006.06
2023-02-19T10:28:02.711Z,96023.34
2023-02-19T10:30:35.584Z,95990.47
2023-02-19T10:33:12.121Z,96004.94
2023-02-19T10:35:55.527Z,95998.72
2023-02-19T10:38:31.317Z,95999.91
2023-02-19T10:41:18.900Z,96034.28
2023-02-19T10:44:09.725Z,95991.72
2023-02-19T10:46:43.290Z,95997.88
2023-02-19T10:49:27.638Z,96011.94
2023-02-19T10:51:57.189Z,95998.16
2023-02-19T10:54:29.789Z,95992.63
2023-02-19T10:57:16.043Z,95998.06
2023-02-19T10:59:54.245Z,95977.13
2023-02-19T11:02:21.876Z,95987.13
2023-02-19T11:05:09.716Z,95978.44
2023-02-19T11:07:37.605Z,95979.19
2023-02-19T11:10:06.096Z,95992.34
2023-02-19T11:12:34.489Z,95984.75
2023-02-19T11:15:21.077Z,95987.81
2023-02-19T11:18:03.804Z,95975.41
2023-02-19T11:20:30.580Z,95972.56
2023-02-19T11:23:01.182Z,95962.81
2023-02-19T11:25:28.079Z,95977.72
2023-02-19T11:27:57.048Z,95963.50
2023-02-19T11:30:45.151Z,95960.63
2023-02-19T11:33:17.483Z,95972.47
2023-02-19T11:35:44.634Z,95982.09
2023-02-19T11:38:13.015Z,95982.72
2023-02-19T11:41:10.450Z,95969.44
2023-02-19T11:43:46.524Z,95983.84
2023-02-19T11:46:18.970Z,95974.22
2023-02-19T11:48:51.163Z,95970.03
2023-02-19T11:51:44.966Z,95973.38
2023-02-19T11:54:28.220Z,95987.09
2023-02-19T11:57:35.326Z,95979.72
2023-02-19T12:00:26.517Z,95986.72
2023-02-19T12:03:17.256Z,95971.50
2023-02-19T12:06:04.074Z,95972.03
2023-02-19T12:09:00.702Z,95979.19
2023-02-19T12:12:00.665Z,95986.97
2023-02-19T12:15:05.395Z,95978.25
2023-02-19T12:18:09.208Z,95997.91
2023-02-19T12:21:16.851Z,95978.88
2023-02-19T12:23:52.595Z,95999.88
2023-02-19T12:26:29.034Z,95991.31
2023-02-19T12:29:05.868Z,95985.09
2023-02-19T12:31:52.167Z,95982.31
2023-02-19T12:34:47.666Z,95980.56
2023-02-19T12:37:27.491Z,95982.84
2023-02-19T12:40:32.285Z,95991.72
2023-02-19T12:43:21.257Z,95994.81
2023-02-19T12:46:09.812Z,96006.91
2023-02-19T12:48:46.898Z,95984.13
2023-02-19T12:51:21.268Z,96002.59
2023-02-19T12:54:16.398Z,96004.59
2023-02-19T12:56:52.938Z,95994.41
2023-02-19T12:59:31.871Z,96015.72
2023-02-19T13:02:17.840Z,96013.63
2023-02-19T13:04:50.422Z,96004.78
2023-02-19T13:07:31.146Z,96026.47
2023-02-19T13:10:24.268Z,96017.44
2023-02-19T13:12:53.059Z,96006.22
2023-02-19T13:15:34.269Z,96022.31
2023-02-19T13:18:05.364Z,96018.22
2023-02-19T13:20:39.179Z,96033.44
2023-02-19T13:23:16.580Z,96028.59
2023-02-19T13:26:13.100Z,96033.66
2023-02-19T13:28:55.000Z,95990.81
2023-02-19T13:31:39.819Z,96027.91
2023-02-19T13:34:32.946Z,96029.69
2023-02-19T13:37:00.245Z,96029.41
2023-02-19T13:39:28.497Z,96010.06
2023-02-19T13:41:58.919Z,96010.16
2023-02-19T13:44:32.587Z,96014.28
2023-02-19T13:46:59.696Z,95998.34
2023-02-19T13:49:28.848Z,96005.06
2023-02-19T13:51:57.080Z,96006.22
2023-02-19T13:54:49.912Z,95996.91
2023-02-19T13:57:27.417Z,96016.03
2023-02-19T13:59:58.239Z,96011.38
2023-02-19T14:02:29.964Z,96011.06
2023-02-19T14:04:59.420Z,96027.75
2023-02-19T14:07:31.609Z,96026.72
2023-02-19T14:09:58.432Z,96028.75
2023-02-19T14:12:34.431Z,96032.56
2023-02-19T14:15:40.611Z,96032.06
2023-02-19T14:18:42.359Z,96038.00
2023-02-19T14:21:39.447Z,96054.75
2023-02-19T14:24:12.347Z,96063.81
2023-02-19T14:26:40.545Z,96061.22
2023-02-19T14:29:08.447Z,96053.38
2023-02-19T14:31:38.297Z,96060.63
2023-02-19T14:34:19.212Z,96054.41
2023-02-19T14:36:50.384Z,96054.41
2023-02-19T14:39:22.619Z,96047.47
2023-02-19T14:41:56.445Z,96037.78
2023-02-19T14:44:27.679Z,96046.53
2023-02-19T14:46:59.250Z,96048.28
2023-02-19T14:49:44.118Z,96045.63
2023-02-19T14:52:41.253Z,96048.16
2023-02-19T14:55:12.944Z,96055.22
2023-02-19T14:57:43.747Z,96052.19
2023-02-19T15:00:37.935Z,96058.84
2023-02-19T15:03:05.403Z,96069.22
2023-02-19T15:05:35.123Z,96063.25
2023-02-19T15:08:06.302Z,96058.44
2023-02-19T15:10:35.038Z,96062.75
2023-02-19T15:13:05.644Z,96052.63
2023-02-19T15:15:38.867Z,96066.38
2023-02-19T15:18:05.900Z,96071.03
2023-02-19T15:20:35.921Z,96069.41
2023-02-19T15:23:05.726Z,96068.31
2023-02-19T15:25:34.930Z,96075.44
2023-02-19T15:28:25.804Z,96081.47
2023-02-19T15:30:58.473Z,96079.47
2023-02-19T15:33:27.582Z,96090.63
2023-02-19T15:35:58.112Z,96087.63
2023-02-19T15:38:25.109Z,96093.44
2023-02-19T15:40:52.763Z,96095.88
2023-02-19T15:43:38.329Z,96096.66
2023-02-19T15:46:12.626Z,96087.50
2023-02-19T15:48:56.078Z,96099.88
2023-02-19T15:51:30.189Z,96101.50
2023-02-19T15:54:03.100Z,96105.50
2023-02-19T15:56:35.864Z,96094.44
2023-02-19T15:59:18.369Z,96082.00
2023-02-19T16:01:45.454Z,96084.59
2023-02-19T16:04:17.368Z,96093.22
2023-02-19T16:06:57.180Z,96085.59
2023-02-19T16:09:30.533Z,96097.56
2023-02-19T16:11:59.748Z,96091.22
2023-02-19T16:14:29.174Z,96092.09
2023-02-19T16:17:12.975Z,96092.41
2023-02-19T16:19:50.470Z,96101.75
2023-02-19T16:22:24.069Z,96102.22
2023-02-19T16:24:55.149Z,96099.81
2023-02-19T16:27:40.665Z,96110.47
2023-02-19T16:30:25.983Z,96111.56
2023-02-19T16:33:21.338Z,96120.88
2023-02-19T16:35:49.097Z,96123.41
2023-02-19T16:38:20.753Z,96123.50
2023-02-19T16:40:50.046Z,96138.44
2023-02-19T16:43:41.709Z,96152.09
2023-02-19T16:46:12.818Z,96152.19
2023-02-19T16:48:39.410Z,96153.25
2023-02-19T16:51:07.297Z,96158.78
2023-02-19T16:53:33.867Z,96162.88
2023-02-19T16:56:00.526Z,96174.00
2023-02-19T16:58:27.185Z,96171.38
2023-02-19T17:00:53.689Z,96172.47
2023-02-19T17:03:24.675Z,96165.50
2023-02-19T17:05:52.121Z,96168.50
2023-02-19T17:08:51.859Z,96186.19
2023-02-19T17:11:18.633Z,96181.34
2023-02-19T17:13:45.858Z,96183.84
2023-02-19T17:16:20.049Z,96190.63
2023-02-19T17:18:46.564Z,96183.09
2023-02-19T17:21:15.417Z,96181.25
2023-02-19T17:23:42.138Z,96192.88
2023-02-19T17:26:28.911Z,96196.22
2023-02-19T17:28:59.991Z,96194.03
2023-02-19T17:31:26.931Z,96197.56
2023-02-19T17:33:53.865Z,96197.28
2023-02-19T17:36:27.596Z,96210.59
2023-02-19T17:38:54.475Z,96211.19
2023-02-19T17:41:21.006Z,96218.47
2023-02-19T17:43:47.600Z,96209.25
2023-02-19T17:46:23.242Z,96207.63
2023-02-19T17:48:50.148Z,96214.69
2023-02-19T17:51:16.814Z,96220.91
2023-02-19T17:53:43.971Z,96226.03
2023-02-19T17:56:15.823Z,96227.94
2023-02-19T17:58:42.328Z,96235.00
2023-02-19T18:01:08.884Z,96240.66
2023-02-19T18:03:35.753Z,96235.25
2023-02-19T18:06:02.346Z,96243.38
2023-02-19T18:08:28.827Z,96250.91
2023-02-19T18:10:55.560Z,96250.13
2023-02-19T18:13:22.028Z,96254.44
2023-02-19T18:15:48.569Z,96255.78
2023-02-19T18:18:15.172Z,96259.78
2023-02-19T18:20:41.736Z,96257.34
2023-02-19T18:23:08.184Z,96264.63
2023-02-19T18:25:34.711Z,96267.59
2023-02-19T18:28:01.278Z,96271.97
2023-02-19T18:30:28.427Z,96297.41
2023-02-19T18:32:55.172Z,96290.81
2023-02-19T18:35:21.880Z,96288.91
2023-02-19T18:37:52.695Z,96294.63
2023-02-19T18:40:23.804Z,96293.00
2023-02-19T18:42:50.344Z,96297.06
2023-02-19T18:45:17.444Z,96302.97
2023-02-19T18:47:47.514Z,96305.69
2023-02-19T18:50:14.757Z,96313.47
2023-02-19T18:52:41.448Z,96308.88
2023-02-19T18:55:09.678Z,96316.44
2023-02-19T18:57:36.182Z,96313.53
2023-02-19T19:00:03.365Z,96304.31
2023-02-19T19:02:42.662Z,96310.19
2023-02-19T19:05:17.769Z,96308.88
2023-02-19T19:07:44.383Z,96317.22
2023-02-19T19:10:10.944Z,96325.38
2023-02-19T19:12:37.472Z,96323.16
2023-02-19T19:15:04.244Z,96328.59
2023-02-19T19:17:30.824Z,96323.00
2023-02-19T19:19:57.455Z,96325.72
2023-02-19T19:22:23.985Z,96331.44
2023-02-19T19:24:50.628Z,96317.81
2023-02-19T19:27:20.116Z,96320.31
2023-02-19T19:29:46.739Z,96305.88
2023-02-19T19:32:14.150Z,96310.19
2023-02-19T19:34:41.092Z,96317.00
2023-02-19T19:37:07.638Z,96321.59
2023-02-19T19:39:34.304Z,96312.75
2023-02-19T19:42:00.749Z,96328.72
2023-02-19T19:44:27.327Z,96323.28
2023-02-19T19:46:53.971Z,96318.97
2023-02-19T19:49:22.401Z,96315.97
2023-02-19T19:51:49.133Z,96320.00
2023-02-19T19:54:15.821Z,96327.31
2023-02-19T19:56:44.073Z,96328.44
2023-02-19T19:59:14.749Z,96321.38
2023-02-19T20:01:48.698Z,96331.19
2023-02-19T20:04:15.435Z,96338.22
2023-02-19T20:06:41.984Z,96337.94
2023-02-19T20:09:08.524Z,96328.75
2023-02-19T20:11:35.135Z,96332.28
2023-02-19T20:14:01.736Z,96343.94
2023-02-19T20:16:28.754Z,96344.75
2023-02-19T20:18:55.393Z,96345.03
2023-02-19T20:21:21.936Z,96346.13
2023-02-19T20:23:48.423Z,96353.47
2023-02-19T20:26:24.781Z,96353.47
2023-02-19T20:28:51.890Z,96347.50
2023-02-19T20:31:18.841Z,96339.09
2023-02-19T20:33:45.494Z,96328.53
2023-02-19T20:36:12.072Z,96336.44
2023-02-19T20:38:38.638Z,96330.44
2023-02-19T20:41:06.349Z,96347.81
2023-02-19T20:43:32.978Z,96352.19
2023-02-19T20:45:59.617Z,96349.19
2023-02-19T20:48:26.111Z,96340.03
2023-02-19T20:50:52.776Z,96337.59
2023-02-19T20:53:19.289Z,96344.94
2023-02-19T20:55:45.802Z,96335.97
2023-02-19T20:58:12.430Z,96343.31
2023-02-19T21:00:39.035Z,96348.72
2023-02-19T21:03:05.552Z,96355.22
2023-02-19T21:05:32.221Z,96353.34
2023-02-19T21:07:58.938Z,96359.84
2023-02-19T21:10:25.500Z,96357.94
2023-02-19T21:12:52.073Z,96366.34
2023-02-19T21:15:18.626Z,96356.34
2023-02-19T21:17:45.291Z,96359.34
2023-02-19T21:20:12.368Z,96361.53
2023-02-19T21:22:38.871Z,96356.66
2023-02-19T21:25:05.996Z,96365.34
2023-02-19T21:27:32.528Z,96367.50
2023-02-19T21:29:59.194Z,96375.38
2023-02-19T21:32:25.760Z,96378.63
2023-02-19T21:34:52.298Z,96375.91
2023-02-19T21:37:18.941Z,96376.72
2023-02-19T21:39:45.419Z,96371.88
2023-02-19T21:42:12.046Z,96369.16
2023-02-19T21:44:38.558Z,96361.03
2023-02-19T21:47:05.150Z,96349.38
2023-02-19T21:49:31.698Z,96355.59
2023-02-19T21:51:58.306Z,96354.53
2023-02-19T21:54:25.365Z,96353.19
2023-02-19T21:56:53.466Z,96355.88
2023-02-19T21:59:21.310Z,96357.31
2023-02-19T22:01:48.004Z,96355.38
2023-02-19T22:04:17.337Z,96356.19
2023-02-19T22:06:44.482Z,96351.25
2023-02-19T22:09:11.887Z,96347.53
2023-02-19T22:11:38.373Z,96333.97
2023-02-19T22:14:05.180Z,96339.41
2023-02-19T22:16:31.752Z,96348.63
2023-02-19T22:18:59.786Z,96353.53
2023-02-19T22:21:30.447Z,96354.88
2023-02-19T22:23:57.162Z,96358.94
2023-02-19T22:26:35.207Z,96365.44
2023-02-19T22:29:02.326Z,96359.59
2023-02-19T22:31:28.956Z,96361.16
2023-02-19T22:33:56.024Z,96361.13
2023-02-19T22:36:25.008Z,96356.00
2023-02-19T22:38:52.352Z,96364.94
2023-02-19T22:41:20.163Z,96367.13
2023-02-19T22:43:47.244Z,96379.09
2023-02-19T22:46:16.437Z,96372.28
2023-02-19T22:48:52.345Z,96366.06
2023-02-19T22:51:21.336Z,96368.50
2023-02-19T22:53:53.394Z,96366.28
2023-02-19T22:56:21.747Z,96367.16
2023-02-19T22:58:48.574Z,96362.00
2023-02-19T23:01:15.548Z,96366.34
2023-02-19T23:03:53.476Z,96369.63
2023-02-19T23:06:24.629Z,96376.19
2023-02-19T23:08:52.059Z,96374.25
2023-02-19T23:11:26.860Z,96377.75
2023-02-19T23:13:53.517Z,96382.38
2023-02-19T23:16:20.211Z,96393.22
2023-02-19T23:18:46.882Z,96384.53
2023-02-19T23:21:13.608Z,96382.59
2023-02-19T23:23:44.481Z,96395.34
2023-02-19T23:26:12.691Z,96402.38
2023-02-19T23:28:40.715Z,96392.38
2023-02-19T23:31:07.626Z,96399.16
2023-02-19T23:33:34.973Z,96396.66
2023-02-19T23:36:01.867Z,96393.44
2023-02-19T23:38:28.377Z,96386.13
2023-02-19T23:40:55.046Z,96383.13
2023-02-19T23:43:21.681Z,96385.31
2023-02-19T23:45:48.199Z,96388.03
2023-02-19T23:48:14.762Z,96392.66
2023-02-19T23:50:41.340Z,96394.00
2023-02-19T23:53:07.860Z,96398.34
2023-02-19T23:55:34.367Z,96404.28
2023-02-19T23:58:00.965Z,96395.91
